createdAt,value
2016-12-14T00:00:44.691Z,79.27
2016-12-14T00:01:55.397Z,79.47
2016-12-14T00:03:06.106Z,79.57
2016-12-14T00:04:16.836Z,79.57
2016-12-14T00:05:27.528Z,79.17
2016-12-14T00:06:38.240Z,79.47
2016-12-14T00:07:48.962Z,79.47
2016-12-14T00:08:59.692Z,79.27
2016-12-14T00:10:10.950Z,79.76
2016-12-14T00:11:21.634Z,79.66
2016-12-14T00:12:32.363Z,79.47
2016-12-14T00:13:43.073Z,79.27
2016-12-14T00:14:53.796Z,79.57
2016-12-14T00:16:04.514Z,79.47
2016-12-14T00:17:15.236Z,79.66
2016-12-14T00:18:26.654Z,79.47
2016-12-14T00:19:37.377Z,79.66
2016-12-14T00:20:48.091Z,79.37
2016-12-14T00:21:58.801Z,79.5
2016-12-14T00:23:09.507Z,80.38
2016-12-14T00:24:20.260Z,80.19
2016-12-14T00:25:30.973Z,80.09
2016-12-14T00:26:41.684Z,79.5
2016-12-14T00:27:52.435Z,80.19
2016-12-14T00:29:03.185Z,80.57
2016-12-14T00:30:13.897Z,80.47
2016-12-14T00:31:24.604Z,80.87
2016-12-14T00:32:35.315Z,81.05
2016-12-14T00:33:46.031Z,80.87
2016-12-14T00:34:56.744Z,81.25
2016-12-14T00:36:07.475Z,81.64
2016-12-14T00:37:18.202Z,81.93
2016-12-14T00:38:28.892Z,82.22
2016-12-14T00:39:39.603Z,82.51
2016-12-14T00:40:50.310Z,81.45
2016-12-14T00:42:01.553Z,81.35
2016-12-14T00:43:12.240Z,81.45
2016-12-14T00:44:24.198Z,81.83
2016-12-14T00:45:34.893Z,81.6
2016-12-14T00:46:46.295Z,80.47
2016-12-14T00:47:56.990Z,81.21
2016-12-14T00:49:07.705Z,78.59
2016-12-14T00:50:18.425Z,79.08
2016-12-14T00:51:29.830Z,79.37
2016-12-14T00:52:40.543Z,79.37
2016-12-14T00:53:51.255Z,78.69
2016-12-14T00:55:01.975Z,79.08
2016-12-14T00:56:12.709Z,78.69
2016-12-14T00:57:23.419Z,77.73
2016-12-14T00:58:34.101Z,78.5
2016-12-14T00:59:44.777Z,78.5
2016-12-14T01:00:55.473Z,78.11
2016-12-14T01:02:06.157Z,77.92
2016-12-14T01:03:16.847Z,77.24
2016-12-14T01:04:28.241Z,77.82
2016-12-14T01:05:38.948Z,77.34
2016-12-14T01:06:49.666Z,77.63
2016-12-14T01:08:00.364Z,77.37
2016-12-14T01:09:11.048Z,77.53
2016-12-14T01:10:21.752Z,76.46
2016-12-14T01:11:32.441Z,76.86
2016-12-14T01:12:43.147Z,76.18
2016-12-14T01:13:53.848Z,76.76
2016-12-14T01:15:04.585Z,76.56
2016-12-14T01:16:15.284Z,75.89
2016-12-14T01:17:25.986Z,76.37
2016-12-14T01:18:36.692Z,76.18
2016-12-14T01:19:47.368Z,75.79
2016-12-14T01:20:58.063Z,76.18
2016-12-14T01:22:08.768Z,75.5
2016-12-14T01:23:19.461Z,75.31
2016-12-14T01:24:30.141Z,75.5
2016-12-14T01:25:40.840Z,75.6
2016-12-14T01:26:51.540Z,74.63
2016-12-14T01:28:02.228Z,75.02
2016-12-14T01:29:12.917Z,75.7
2016-12-14T01:30:24.319Z,75.4
2016-12-14T01:31:35.024Z,75.4
2016-12-14T01:32:46.218Z,75.5
2016-12-14T01:33:56.900Z,75.11
2016-12-14T01:35:07.589Z,75.31
2016-12-14T01:36:18.288Z,75.7
2016-12-14T01:37:29.001Z,75.79
2016-12-14T01:38:39.721Z,75.7
2016-12-14T01:39:50.396Z,75.4
2016-12-14T01:41:01.084Z,75.6
2016-12-14T01:42:11.773Z,75.31
2016-12-14T01:43:22.469Z,74.79
2016-12-14T01:44:33.875Z,75.5
2016-12-14T01:45:44.561Z,74.43
2016-12-14T01:46:55.271Z,75.65
2016-12-14T01:48:05.949Z,75.89
2016-12-14T01:49:16.642Z,75.6
2016-12-14T01:50:27.348Z,75.56
2016-12-14T01:51:38.035Z,75.65
2016-12-14T01:52:48.751Z,75.17
2016-12-14T01:53:59.442Z,75.37
2016-12-14T01:55:10.189Z,75.75
2016-12-14T01:56:21.595Z,75.46
2016-12-14T01:57:32.302Z,75.75
2016-12-14T01:58:43.018Z,76.14
2016-12-14T01:59:53.739Z,75.75
2016-12-14T02:01:04.461Z,76.14
2016-12-14T02:02:15.176Z,76.24
2016-12-14T02:03:25.891Z,76.33
2016-12-14T02:04:37.086Z,75.46
2016-12-14T02:05:47.799Z,75.75
2016-12-14T02:06:58.497Z,75.85
2016-12-14T02:08:09.181Z,75.46
2016-12-14T02:09:19.879Z,75.65
2016-12-14T02:10:30.596Z,74.21
2016-12-14T02:11:41.275Z,74.49
2016-12-14T02:12:51.993Z,73.72
2016-12-14T02:14:02.685Z,72.95
2016-12-14T02:15:13.402Z,73.14
2016-12-14T02:16:24.075Z,73.24
2016-12-14T02:17:34.750Z,72.85
2016-12-14T02:18:45.438Z,73.04
2016-12-14T02:19:56.128Z,73.18
2016-12-14T02:21:06.827Z,72.85
2016-12-14T02:22:18.122Z,73.14
2016-12-14T02:23:28.844Z,72.85
2016-12-14T02:24:39.559Z,72.6
2016-12-14T02:25:50.281Z,73.04
2016-12-14T02:27:00.988Z,73.27
2016-12-14T02:28:11.679Z,72.95
2016-12-14T02:29:22.352Z,72.85
2016-12-14T02:30:33.066Z,73.24
2016-12-14T02:31:43.763Z,72.79
2016-12-14T02:32:54.454Z,72.89
2016-12-14T02:34:05.132Z,73.04
2016-12-14T02:35:15.798Z,73.14
2016-12-14T02:36:26.527Z,72.95
2016-12-14T02:37:37.248Z,73.14
2016-12-14T02:38:47.955Z,72.85
2016-12-14T02:39:58.810Z,73.04
2016-12-14T02:41:09.969Z,73.14
2016-12-14T02:42:21.135Z,72.85
2016-12-14T02:43:32.328Z,73.04
2016-12-14T02:44:44.233Z,72.66
2016-12-14T02:45:55.375Z,74.11
2016-12-14T02:47:07.086Z,74.4
2016-12-14T02:48:18.244Z,75.27
2016-12-14T02:49:29.396Z,77.01
2016-12-14T02:50:40.559Z,75.27
2016-12-14T02:51:51.718Z,76.04
2016-12-14T02:53:02.855Z,75.85
2016-12-14T02:54:14.035Z,74.69
2016-12-14T02:55:25.180Z,73.14
2016-12-14T02:56:36.345Z,72.46
2016-12-14T02:57:47.511Z,72.42
2016-12-14T02:58:58.672Z,73.01
2016-12-14T03:00:09.835Z,73.24
2016-12-14T03:01:20.975Z,73.2
2016-12-14T03:02:32.129Z,74.4
2016-12-14T03:03:43.295Z,74.11
2016-12-14T03:05:00.572Z,74.36
2016-12-14T03:06:11.817Z,75.04
2016-12-14T03:07:22.517Z,76.2
2016-12-14T03:08:33.208Z,76.1
2016-12-14T03:09:43.907Z,76.1
2016-12-14T03:10:54.634Z,76.97
2016-12-14T03:12:05.335Z,77.26
2016-12-14T03:13:16.016Z,77.07
2016-12-14T03:14:26.723Z,77.75
2016-12-14T03:15:37.423Z,78.42
2016-12-14T03:16:48.163Z,78.33
2016-12-14T03:17:58.847Z,78.52
2016-12-14T03:19:09.535Z,78.42
2016-12-14T03:20:20.241Z,78.52
2016-12-14T03:21:30.923Z,78.71
2016-12-14T03:22:41.619Z,78.61
2016-12-14T03:23:52.316Z,78.33
2016-12-14T03:25:03.027Z,78.23
2016-12-14T03:26:13.750Z,77.65
2016-12-14T03:27:24.424Z,77.75
2016-12-14T03:28:35.126Z,77.84
2016-12-14T03:29:45.836Z,77.17
2016-12-14T03:30:56.544Z,77.45
2016-12-14T03:32:07.971Z,76.87
2016-12-14T03:33:18.639Z,76.39
2016-12-14T03:34:29.338Z,76.39
2016-12-14T03:35:40.043Z,76.39
2016-12-14T03:36:50.756Z,76.78
2016-12-14T03:38:01.465Z,78.75
2016-12-14T03:39:12.134Z,79.04
2016-12-14T03:40:22.832Z,77.98
2016-12-14T03:41:33.547Z,79.43
2016-12-14T03:42:44.242Z,80.4
2016-12-14T03:43:54.943Z,80.4
2016-12-14T03:45:05.644Z,80.88
2016-12-14T03:46:16.331Z,80.2
2016-12-14T03:47:27.019Z,80.79
2016-12-14T03:48:38.276Z,81.71
2016-12-14T03:49:48.987Z,81.52
2016-12-14T03:50:59.689Z,81.42
2016-12-14T03:52:10.396Z,82.2
2016-12-14T03:53:21.091Z,82.78
2016-12-14T03:54:31.838Z,82.97
2016-12-14T03:55:42.524Z,83.06
2016-12-14T03:56:53.215Z,82.97
2016-12-14T03:58:03.920Z,83.26
2016-12-14T03:59:14.627Z,82.87
2016-12-14T04:00:25.335Z,83.16
2016-12-14T04:01:36.040Z,82.87
2016-12-14T04:02:46.750Z,82.97
2016-12-14T04:03:57.456Z,82.73
2016-12-14T04:05:08.177Z,82.2
2016-12-14T04:06:18.864Z,82
2016-12-14T04:07:30.090Z,82.2
2016-12-14T04:08:40.797Z,82.1
2016-12-14T04:09:52.224Z,82.39
2016-12-14T04:11:02.927Z,82.1
2016-12-14T04:12:13.639Z,82.48
2016-12-14T04:13:24.344Z,82.39
2016-12-14T04:14:35.024Z,82
2016-12-14T04:15:45.740Z,81.71
2016-12-14T04:16:56.451Z,81.81
2016-12-14T04:18:07.859Z,82.1
2016-12-14T04:19:18.560Z,82.29
2016-12-14T04:20:29.262Z,82
2016-12-14T04:21:39.963Z,81.81
2016-12-14T04:22:50.660Z,82
2016-12-14T04:24:01.350Z,82.1
2016-12-14T04:25:12.074Z,81.9
2016-12-14T04:26:22.781Z,82.87
2016-12-14T04:27:33.466Z,82.68
2016-12-14T04:28:44.160Z,83.16
2016-12-14T04:29:54.854Z,84.32
2016-12-14T04:31:05.591Z,84.52
2016-12-14T04:32:16.280Z,84.9
2016-12-14T04:33:26.995Z,86.69
2016-12-14T04:34:37.716Z,85.73
2016-12-14T04:35:48.422Z,87.27
2016-12-14T04:36:59.111Z,87.76
2016-12-14T04:38:09.797Z,88.15
2016-12-14T04:39:20.520Z,87.76
2016-12-14T04:40:31.195Z,88.24
2016-12-14T04:41:41.907Z,88.82
2016-12-14T04:42:52.591Z,88.63
2016-12-14T04:44:03.289Z,89.31
2016-12-14T04:45:13.992Z,89.36
2016-12-14T04:46:24.704Z,90.42
2016-12-14T04:47:35.386Z,90.23
2016-12-14T04:48:46.113Z,90.71
2016-12-14T04:49:56.807Z,91
2016-12-14T04:51:07.522Z,91.49
2016-12-14T04:52:18.212Z,91.39
2016-12-14T04:53:28.909Z,91.67
2016-12-14T04:54:39.617Z,91.97
2016-12-14T04:55:50.289Z,92.35
2016-12-14T04:57:00.976Z,92.74
2016-12-14T04:58:11.669Z,91.49
2016-12-14T04:59:22.871Z,92.35
2016-12-14T05:00:33.598Z,92.55
2016-12-14T05:01:44.300Z,92.45
2016-12-14T05:02:54.967Z,92.55
2016-12-14T05:04:05.647Z,92.83
2016-12-14T05:05:16.332Z,92.45
2016-12-14T05:06:27.049Z,92.45
2016-12-14T05:07:37.934Z,92.83
2016-12-14T05:08:48.616Z,93.32
2016-12-14T05:09:59.299Z,94.29
2016-12-14T05:11:09.987Z,93.32
2016-12-14T05:12:20.714Z,93.32
2016-12-14T05:13:31.416Z,93.8
2016-12-14T05:14:42.111Z,94.67
2016-12-14T05:15:53.509Z,94.87
2016-12-14T05:17:04.213Z,94.57
2016-12-14T05:18:14.978Z,94.77
2016-12-14T05:19:25.677Z,95.06
2016-12-14T05:20:36.410Z,95.45
2016-12-14T05:21:47.096Z,95.54
2016-12-14T05:22:57.810Z,95.45
2016-12-14T05:24:08.498Z,95.45
2016-12-14T05:25:19.186Z,95.06
2016-12-14T05:26:29.863Z,95.15
2016-12-14T05:27:40.564Z,96.08
2016-12-14T05:28:51.244Z,95.54
2016-12-14T05:30:01.941Z,95.45
2016-12-14T05:31:12.642Z,95.45
2016-12-14T05:32:23.344Z,96.12
2016-12-14T05:33:34.037Z,95.64
2016-12-14T05:34:44.714Z,95.59
2016-12-14T05:35:55.453Z,96.51
2016-12-14T05:37:06.172Z,96.26
2016-12-14T05:38:16.882Z,96.26
2016-12-14T05:39:27.561Z,96.36
2016-12-14T05:40:38.247Z,96.46
2016-12-14T05:41:48.940Z,96.66
2016-12-14T05:42:59.641Z,97.04
2016-12-14T05:44:10.335Z,96.75
2016-12-14T05:45:21.037Z,97.24
2016-12-14T05:46:31.708Z,96.75
2016-12-14T05:47:42.436Z,96.94
2016-12-14T05:48:53.130Z,97.24
2016-12-14T05:50:03.865Z,96.84
2016-12-14T05:51:14.588Z,97.14
2016-12-14T05:52:25.297Z,97.72
2016-12-14T05:53:35.973Z,97.62
2016-12-14T05:54:46.661Z,97.91
2016-12-14T05:55:57.353Z,97.91
2016-12-14T05:57:08.045Z,97.91
2016-12-14T05:58:18.778Z,97.81
2016-12-14T05:59:29.471Z,98.39
2016-12-14T06:00:40.209Z,98.2
2016-12-14T06:01:50.889Z,99.16
2016-12-14T06:03:01.580Z,98.88
2016-12-14T06:04:12.264Z,98.83
2016-12-14T06:05:22.977Z,98.78
2016-12-14T06:06:33.696Z,99.21
2016-12-14T06:07:44.402Z,99.79
2016-12-14T06:08:55.134Z,99.11
2016-12-14T06:10:05.836Z,99.99
2016-12-14T06:11:17.012Z,99.99
2016-12-14T06:12:27.723Z,99.99
2016-12-14T06:13:38.438Z,99.99
2016-12-14T06:14:49.139Z,99.99
2016-12-14T06:15:59.829Z,99.99
2016-12-14T06:17:10.514Z,99.99
2016-12-14T06:18:21.935Z,99.99
2016-12-14T06:19:32.620Z,99.99
2016-12-14T06:20:43.317Z,99.99
2016-12-14T06:21:54.025Z,99.99
2016-12-14T06:23:04.715Z,99.99
2016-12-14T06:24:15.411Z,99.99
2016-12-14T06:25:26.132Z,99.99
2016-12-14T06:26:37.512Z,99.99
2016-12-14T06:27:48.203Z,99.99
2016-12-14T06:28:58.893Z,99.99
2016-12-14T06:30:09.588Z,99.99
2016-12-14T06:31:21.043Z,99.99
2016-12-14T06:32:31.755Z,99.99
2016-12-14T06:33:42.444Z,99.99
2016-12-14T06:34:53.159Z,99.99
2016-12-14T06:36:03.866Z,99.99
2016-12-14T06:37:14.580Z,99.99
2016-12-14T06:38:25.272Z,99.99
2016-12-14T06:39:35.985Z,99.99
2016-12-14T06:40:46.685Z,99.99
2016-12-14T06:41:57.382Z,99.99
2016-12-14T06:43:08.095Z,99.99
2016-12-14T06:44:18.811Z,99.99
2016-12-14T06:45:29.531Z,99.99
2016-12-14T06:46:40.238Z,99.99
2016-12-14T06:47:51.154Z,99.99
2016-12-14T06:49:02.031Z,99.99
2016-12-14T06:50:13.190Z,99.99
2016-12-14T06:51:24.335Z,99.99
2016-12-14T06:52:35.490Z,99.99
2016-12-14T06:53:46.637Z,99.99
2016-12-14T06:54:57.783Z,99.99
2016-12-14T06:56:08.935Z,99.99
2016-12-14T06:57:20.055Z,99.99
2016-12-14T06:58:31.176Z,99.99
2016-12-14T06:59:42.340Z,99.99
2016-12-14T07:00:53.474Z,99.99
2016-12-14T07:02:04.599Z,99.99
2016-12-14T07:03:15.748Z,99.99
2016-12-14T07:04:26.910Z,99.99
2016-12-14T07:05:38.057Z,99.99
2016-12-14T07:06:49.228Z,99.99
2016-12-14T07:08:00.368Z,99.99
2016-12-14T07:09:11.529Z,99.99
2016-12-14T07:10:23.439Z,99.99
2016-12-14T07:11:34.586Z,99.99
2016-12-14T07:12:45.718Z,99.99
2016-12-14T07:13:56.865Z,99.99
2016-12-14T07:15:07.995Z,99.99
2016-12-14T07:16:19.167Z,99.99
2016-12-14T07:17:30.303Z,99.99
2016-12-14T07:18:41.460Z,99.99
2016-12-14T07:19:52.597Z,99.99
2016-12-14T07:21:03.762Z,99.99
2016-12-14T07:22:14.920Z,99.99
2016-12-14T07:23:26.050Z,99.99
2016-12-14T07:24:37.206Z,99.99
2016-12-14T07:25:48.369Z,99.99
2016-12-14T07:26:59.513Z,99.99
2016-12-14T07:28:10.661Z,99.99
2016-12-14T07:29:21.821Z,99.99
2016-12-14T07:30:32.978Z,99.99
2016-12-14T07:31:44.152Z,99.99
2016-12-14T07:32:55.306Z,99.99
2016-12-14T07:34:06.468Z,99.99
2016-12-14T07:35:17.605Z,99.99
2016-12-14T07:36:28.779Z,99.99
2016-12-14T07:37:39.948Z,99.98
2016-12-14T07:38:51.125Z,98.92
2016-12-14T07:40:02.260Z,98.92
2016-12-14T07:41:13.441Z,98.92
2016-12-14T07:42:24.608Z,98.44
2016-12-14T07:43:36.516Z,99.02
2016-12-14T07:44:47.672Z,98.73
2016-12-14T07:45:58.820Z,98.73
2016-12-14T07:47:09.946Z,97.96
2016-12-14T07:48:21.090Z,98.34
2016-12-14T07:49:32.271Z,98.25
2016-12-14T07:50:43.399Z,98.73
2016-12-14T07:51:54.553Z,98.63
2016-12-14T07:53:05.718Z,97.96
2016-12-14T07:54:16.894Z,98.83
2016-12-14T07:55:28.044Z,98.54
2016-12-14T07:56:39.215Z,98.73
2016-12-14T07:57:50.391Z,98.34
2016-12-14T07:59:01.546Z,98.92
2016-12-14T08:00:12.730Z,99.02
2016-12-14T08:01:23.894Z,97.96
2016-12-14T08:02:35.038Z,98.54
2016-12-14T08:03:46.191Z,97.57
2016-12-14T08:04:57.344Z,98.44
2016-12-14T08:06:08.685Z,98.34
2016-12-14T08:07:20.426Z,98.15
2016-12-14T08:08:32.177Z,98.44
2016-12-14T08:09:43.318Z,97.96
2016-12-14T08:10:54.473Z,97.96
2016-12-14T08:12:05.632Z,97.77
2016-12-14T08:13:16.766Z,96.89
2016-12-14T08:14:27.922Z,95.93
2016-12-14T08:15:39.078Z,96.03
2016-12-14T08:16:50.230Z,94.38
2016-12-14T08:18:01.366Z,94.38
2016-12-14T08:19:12.489Z,92.84
2016-12-14T08:20:23.629Z,92.84
2016-12-14T08:21:34.784Z,91.88
2016-12-14T08:22:45.939Z,90.62
2016-12-14T08:23:57.123Z,90.23
2016-12-14T08:25:08.265Z,90.72
2016-12-14T08:26:19.407Z,90.67
2016-12-14T08:27:30.552Z,91.16
2016-12-14T08:28:41.713Z,90.96
2016-12-14T08:29:52.864Z,91.35
2016-12-14T08:31:04.574Z,90.48
2016-12-14T08:32:15.718Z,91.25
2016-12-14T08:33:26.856Z,90.38
2016-12-14T08:34:38.054Z,90.29
2016-12-14T08:35:49.216Z,89.81
2016-12-14T08:37:00.915Z,90.09
2016-12-14T08:38:12.067Z,90.09
2016-12-14T08:39:23.207Z,90.19
2016-12-14T08:40:34.346Z,90.48
2016-12-14T08:41:45.674Z,90.87
2016-12-14T08:42:57.376Z,90.09
2016-12-14T08:44:08.538Z,90.09
2016-12-14T08:45:19.723Z,90.29
2016-12-14T08:46:31.017Z,89.81
2016-12-14T08:47:42.196Z,89.13
2016-12-14T08:48:53.358Z,88.4
2016-12-14T08:50:04.529Z,88.5
2016-12-14T08:51:15.693Z,87.92
2016-12-14T08:52:26.856Z,86.71
2016-12-14T08:53:37.990Z,85.64
2016-12-14T08:54:49.145Z,84.24
2016-12-14T08:56:00.321Z,84.91
2016-12-14T08:57:11.474Z,84.24
2016-12-14T08:58:22.598Z,83.56
2016-12-14T08:59:33.755Z,83.27
2016-12-14T09:00:44.920Z,83.12
2016-12-14T09:01:56.079Z,82.64
2016-12-14T09:03:07.223Z,81.96
2016-12-14T09:04:18.351Z,82.15
2016-12-14T09:05:29.509Z,82.15
2016-12-14T09:06:40.667Z,81.67
2016-12-14T09:07:51.823Z,81.81
2016-12-14T09:09:03.005Z,81.62
2016-12-14T09:10:14.157Z,80.01
2016-12-14T09:11:25.324Z,79.24
2016-12-14T09:12:36.462Z,77.92
2016-12-14T09:13:47.609Z,77.63
2016-12-14T09:14:58.750Z,77.37
2016-12-14T09:16:09.906Z,76.21
2016-12-14T09:17:21.042Z,76.21
2016-12-14T09:18:32.187Z,75.63
2016-12-14T09:19:43.370Z,75.92
2016-12-14T09:20:55.094Z,75.24
2016-12-14T09:22:06.254Z,75.92
2016-12-14T09:23:17.391Z,75.63
2016-12-14T09:24:28.558Z,75.73
2016-12-14T09:25:39.723Z,77.34
2016-12-14T09:26:50.910Z,76.56
2016-12-14T09:28:02.058Z,76.76
2016-12-14T09:29:13.201Z,76.28
2016-12-14T09:30:24.363Z,75.44
2016-12-14T09:31:36.264Z,72.96
2016-12-14T09:32:47.449Z,73.15
2016-12-14T09:33:58.604Z,74.32
2016-12-14T09:35:09.778Z,76.79
2016-12-14T09:36:20.916Z,77.14
2016-12-14T09:37:32.083Z,79.04
2016-12-14T09:38:43.218Z,79.24
2016-12-14T09:39:54.370Z,79.52
2016-12-14T09:41:05.530Z,80.55
2016-12-14T09:42:16.676Z,81.32
2016-12-14T09:43:27.852Z,81.62
2016-12-14T09:44:38.991Z,81.62
2016-12-14T09:45:50.156Z,82.1
2016-12-14T09:47:01.302Z,81.9
2016-12-14T09:48:12.435Z,82.58
2016-12-14T09:49:23.613Z,82.83
2016-12-14T09:50:34.749Z,83.31
2016-12-14T09:51:45.906Z,82.64
2016-12-14T09:52:57.597Z,82.83
2016-12-14T09:54:09.353Z,82.83
2016-12-14T09:55:20.523Z,83.41
2016-12-14T09:56:31.720Z,84.28
2016-12-14T09:57:42.883Z,84.19
2016-12-14T09:58:54.043Z,84.86
2016-12-14T10:00:05.257Z,83.99
2016-12-14T10:01:16.981Z,84.57
2016-12-14T10:02:28.130Z,84.86
2016-12-14T10:03:39.302Z,84.95
2016-12-14T10:04:50.440Z,85.4
2016-12-14T10:06:01.601Z,85.88
2016-12-14T10:07:12.737Z,85.15
2016-12-14T10:08:23.900Z,85.3
2016-12-14T10:09:35.032Z,85.88
2016-12-14T10:10:46.361Z,86.27
2016-12-14T10:11:58.635Z,86.46
2016-12-14T10:13:10.369Z,85.21
2016-12-14T10:14:21.520Z,85.35
2016-12-14T10:15:32.691Z,85.44
2016-12-14T10:16:43.847Z,84.19
2016-12-14T10:17:55.025Z,83.7
2016-12-14T10:19:06.186Z,83.94
2016-12-14T10:20:17.321Z,83.55
2016-12-14T10:21:28.508Z,84.71
2016-12-14T10:22:39.687Z,85.39
2016-12-14T10:23:50.827Z,85.39
2016-12-14T10:25:01.960Z,85.93
2016-12-14T10:26:13.110Z,85.83
2016-12-14T10:27:24.276Z,84.9
2016-12-14T10:28:35.430Z,84.9
2016-12-14T10:29:46.613Z,85.48
2016-12-14T10:30:58.404Z,84.27
2016-12-14T10:32:09.527Z,84.17
2016-12-14T10:33:20.679Z,84.8
2016-12-14T10:34:31.832Z,86.51
2016-12-14T10:35:42.976Z,87.13
2016-12-14T10:36:54.149Z,86.56
2016-12-14T10:38:05.312Z,86.56
2016-12-14T10:39:17.050Z,86.85
2016-12-14T10:40:28.201Z,87.52
2016-12-14T10:41:39.353Z,88.59
2016-12-14T10:42:51.059Z,87.81
2016-12-14T10:44:02.230Z,88.01
2016-12-14T10:45:13.374Z,88.06
2016-12-14T10:46:24.540Z,88.06
2016-12-14T10:47:35.705Z,88.93
2016-12-14T10:48:46.867Z,87.96
2016-12-14T10:49:58.017Z,87.67
2016-12-14T10:51:09.154Z,87.96
2016-12-14T10:52:20.368Z,88.06
2016-12-14T10:53:31.538Z,89.03
2016-12-14T10:54:42.690Z,89.03
2016-12-14T10:55:54.443Z,89.51
2016-12-14T10:57:05.589Z,89.75
2016-12-14T10:58:17.288Z,90.14
2016-12-14T10:59:29.036Z,90.23
2016-12-14T11:00:40.202Z,90.53
2016-12-14T11:01:51.341Z,90.81
2016-12-14T11:03:02.530Z,91.88
2016-12-14T11:04:14.332Z,92.07
2016-12-14T11:05:25.502Z,92.46
2016-12-14T11:06:36.671Z,92.26
2016-12-14T11:07:47.829Z,92.55
2016-12-14T11:08:58.983Z,92.36
2016-12-14T11:10:10.128Z,92.55
2016-12-14T11:11:21.264Z,92.46
2016-12-14T11:12:33.171Z,93.37
2016-12-14T11:13:44.315Z,93.28
2016-12-14T11:14:55.461Z,93.37
2016-12-14T11:16:06.617Z,93.47
2016-12-14T11:17:18.363Z,93.57
2016-12-14T11:18:29.528Z,93.23
2016-12-14T11:19:40.669Z,93.37
2016-12-14T11:20:52.596Z,93.76
2016-12-14T11:22:03.751Z,93.85
2016-12-14T11:23:15.443Z,94.15
2016-12-14T11:24:26.629Z,93.95
2016-12-14T11:25:37.777Z,93.95
2016-12-14T11:26:48.937Z,94.15
2016-12-14T11:28:00.088Z,93.95
2016-12-14T11:29:11.229Z,93.08
2016-12-14T11:30:22.380Z,93.95
2016-12-14T11:31:33.542Z,93.95
2016-12-14T11:32:44.696Z,93.76
2016-12-14T11:33:55.854Z,93.57
2016-12-14T11:35:06.993Z,93.37
2016-12-14T11:36:18.163Z,93.76
2016-12-14T11:37:29.296Z,93.37
2016-12-14T11:38:40.516Z,93.28
2016-12-14T11:39:51.664Z,93.37
2016-12-14T11:41:02.850Z,93.57
2016-12-14T11:42:14.024Z,93.28
2016-12-14T11:43:25.183Z,94.15
2016-12-14T11:44:36.340Z,94.24
2016-12-14T11:45:47.462Z,94.2
2016-12-14T11:46:58.633Z,94.15
2016-12-14T11:48:09.795Z,94.53
2016-12-14T11:49:20.974Z,95.5
2016-12-14T11:50:32.101Z,96.84
2016-12-14T11:51:43.993Z,97.33
2016-12-14T11:52:55.158Z,98.25
2016-12-14T11:54:06.325Z,98.25
2016-12-14T11:55:17.488Z,99.02
2016-12-14T11:56:28.662Z,99.11
2016-12-14T11:57:39.807Z,99.6
2016-12-14T11:58:50.967Z,99.79
2016-12-14T12:00:02.144Z,99.93
2016-12-14T12:01:13.295Z,98.54
2016-12-14T12:02:24.453Z,98.92
2016-12-14T12:03:35.636Z,98.63
2016-12-14T12:04:46.804Z,98.25
2016-12-14T12:05:57.949Z,98.25
2016-12-14T12:07:09.094Z,98.87
2016-12-14T12:08:22.013Z,99.88
2016-12-14T12:09:33.756Z,99.79
2016-12-14T12:10:44.924Z,99.99
2016-12-14T12:11:56.071Z,99.79
2016-12-14T12:13:07.207Z,99.6
2016-12-14T12:14:18.364Z,99.02
2016-12-14T12:15:29.509Z,98.49
2016-12-14T12:16:41.433Z,97.91
2016-12-14T12:17:52.583Z,96.12
2016-12-14T12:19:03.740Z,95.64
2016-12-14T12:20:15.689Z,94.53
2016-12-14T12:21:27.409Z,94.04
2016-12-14T12:22:38.583Z,91.58
2016-12-14T12:23:49.722Z,90.81
2016-12-14T12:25:00.851Z,90.27
2016-12-14T12:26:12.012Z,88.82
2016-12-14T12:27:23.184Z,89.31
2016-12-14T12:28:34.324Z,90.47
2016-12-14T12:29:45.478Z,91.39
2016-12-14T12:30:56.654Z,91.39
2016-12-14T12:32:07.788Z,91.49
2016-12-14T12:33:18.923Z,90.52
2016-12-14T12:34:30.076Z,88.34
2016-12-14T12:35:41.217Z,85.19
2016-12-14T12:36:52.364Z,82.86
2016-12-14T12:38:06.745Z,79.55
2016-12-14T12:39:17.917Z,79.1
2016-12-14T12:40:29.047Z,80.36
2016-12-14T12:41:40.209Z,82.32
2016-12-14T12:42:51.349Z,82.9
2016-12-14T12:44:02.517Z,85.08
2016-12-14T12:45:13.699Z,86.49
2016-12-14T12:46:24.866Z,87.71
2016-12-14T12:47:36.039Z,88.24
2016-12-14T12:48:47.190Z,88.63
2016-12-14T12:49:58.342Z,87.37
2016-12-14T12:51:09.464Z,88.82
2016-12-14T12:52:20.843Z,85.97
2016-12-14T12:53:32.575Z,83.78
2016-12-14T12:54:43.731Z,80.24
2016-12-14T12:55:54.889Z,76
2016-12-14T12:57:06.048Z,75.98
2016-12-14T12:58:17.178Z,76.85
2016-12-14T12:59:28.350Z,76.42
2016-12-14T13:00:39.502Z,74.04
2016-12-14T13:01:50.683Z,72.13
2016-12-14T13:03:01.852Z,72.85
2016-12-14T13:04:12.988Z,73.91
2016-12-14T13:05:24.148Z,74.81
2016-12-14T13:06:35.330Z,75.84
2016-12-14T13:07:46.472Z,74.13
2016-12-14T13:08:57.618Z,74.52
2016-12-14T13:10:08.803Z,77.11
2016-12-14T13:11:20.011Z,79.64
2016-12-14T13:12:31.178Z,82.12
2016-12-14T13:13:42.372Z,83.73
2016-12-14T13:14:53.543Z,84.56
2016-12-14T13:16:04.705Z,85.48
2016-12-14T13:17:15.907Z,86.45
2016-12-14T13:18:27.082Z,86.99
2016-12-14T13:19:38.230Z,87.27
2016-12-14T13:20:49.372Z,87.66
2016-12-14T13:22:00.529Z,87.43
2016-12-14T13:23:12.452Z,89.26
2016-12-14T13:24:23.596Z,88.01
2016-12-14T13:25:34.771Z,87.81
2016-12-14T13:26:45.918Z,87.81
2016-12-14T13:27:57.817Z,88.59
2016-12-14T13:29:08.973Z,87.71
2016-12-14T13:30:20.122Z,86.69
2016-12-14T13:31:31.270Z,87.18
2016-12-14T13:32:42.413Z,86.99
2016-12-14T13:33:53.557Z,87.37
2016-12-14T13:35:05.270Z,87.47
2016-12-14T13:36:16.444Z,88.15
2016-12-14T13:37:27.599Z,87.85
2016-12-14T13:38:38.746Z,85.48
2016-12-14T13:39:49.945Z,85.39
2016-12-14T13:41:01.116Z,85.39
2016-12-14T13:42:12.278Z,85.1
2016-12-14T13:43:23.433Z,84.27
2016-12-14T13:44:34.567Z,83.88
2016-12-14T13:45:45.721Z,83.11
2016-12-14T13:46:56.880Z,81.7
2016-12-14T13:48:08.029Z,82.08
2016-12-14T13:49:19.169Z,81.7
2016-12-14T13:50:30.541Z,81.21
2016-12-14T13:51:42.258Z,80.87
2016-12-14T13:52:53.419Z,80.87
2016-12-14T13:54:04.581Z,80.19
2016-12-14T13:55:15.725Z,80.28
2016-12-14T13:56:26.898Z,77.51
2016-12-14T13:57:38.075Z,78.33
2016-12-14T13:58:49.246Z,77.36
2016-12-14T14:00:00.400Z,77.06
2016-12-14T14:01:11.537Z,78.38
2016-12-14T14:02:22.735Z,79.25
2016-12-14T14:03:33.875Z,78.77
2016-12-14T14:04:45.030Z,79.35
2016-12-14T14:05:56.164Z,80.96
2016-12-14T14:07:07.346Z,79.7
2016-12-14T14:08:19.276Z,82.22
2016-12-14T14:09:30.464Z,81.89
2016-12-14T14:10:41.597Z,81.89
2016-12-14T14:11:52.769Z,81.5
2016-12-14T14:13:03.934Z,80.73
2016-12-14T14:14:15.085Z,80.73
2016-12-14T14:15:26.262Z,80.87
2016-12-14T14:16:37.467Z,79.99
2016-12-14T14:17:49.210Z,80.38
2016-12-14T14:19:01.117Z,80.87
2016-12-14T14:20:12.287Z,80.28
2016-12-14T14:21:23.427Z,81.25
2016-12-14T14:22:34.563Z,82.6
2016-12-14T14:23:45.706Z,84.79
2016-12-14T14:24:56.850Z,85.97
2016-12-14T14:26:08.015Z,87.08
2016-12-14T14:27:19.161Z,87.81
2016-12-14T14:28:30.321Z,88.64
2016-12-14T14:29:41.507Z,88.54
2016-12-14T14:30:53.405Z,87.87
2016-12-14T14:32:04.576Z,88.06
2016-12-14T14:33:15.709Z,87.52
2016-12-14T14:34:26.861Z,87.13
2016-12-14T14:35:38.609Z,88.01
2016-12-14T14:36:49.747Z,89.26
2016-12-14T14:38:00.919Z,88.2
2016-12-14T14:39:12.630Z,86.75
2016-12-14T14:40:24.344Z,85.35
2016-12-14T14:41:35.496Z,84.03
2016-12-14T14:42:46.645Z,83.2
2016-12-14T14:43:57.803Z,82.81
2016-12-14T14:45:08.965Z,82.43
2016-12-14T14:46:20.156Z,82.91
2016-12-14T14:47:31.302Z,81.75
2016-12-14T14:48:42.493Z,81.02
2016-12-14T14:49:53.474Z,79.66
2016-12-14T14:51:04.380Z,79.41
2016-12-14T14:52:15.100Z,78.83
2016-12-14T14:53:25.791Z,77.12
2016-12-14T14:54:36.518Z,77.51
2016-12-14T14:55:47.202Z,77.7
2016-12-14T14:56:57.913Z,77.9
2016-12-14T14:58:08.594Z,78.38
2016-12-14T14:59:19.293Z,79.12
2016-12-14T15:00:30.003Z,79.76
2016-12-14T15:01:40.732Z,79.95
2016-12-14T15:02:51.451Z,80.24
2016-12-14T15:04:02.173Z,81.12
2016-12-14T15:05:12.863Z,80.44
2016-12-14T15:06:23.593Z,78.74
2016-12-14T15:07:34.302Z,78.83
2016-12-14T15:08:45.015Z,76.79
2016-12-14T15:09:55.718Z,75.38
2016-12-14T15:11:06.414Z,75.32
2016-12-14T15:12:17.116Z,75.28
2016-12-14T15:13:28.382Z,76.35
2016-12-14T15:14:39.080Z,75.77
2016-12-14T15:15:49.790Z,74.16
2016-12-14T15:17:00.490Z,72.16
2016-12-14T15:18:11.211Z,70.87